Time;durP1;ratioP1;P1;durP2;ratioP2;P2;SDS_P1;SDS_P2;PMS_P1;PMS_P2;Temp;Humidity;BMP_temperature;BMP_pressure;BME280_temperature;BME280_humidity;BME280_pressure;Samples;Min_cycle;Max_cycle;Signal;HPM_P1;HPM_P2
2023/12/07 00:00:21;;;;;;;;;15.40;13.00;;;;;3.63;86.54;100156.78;5057153;28;8858;-91
2023/12/07 00:02:49;;;;;;;;;18.00;15.40;;;;;3.62;87.38;100161.19;5057615;28;8846;-90
2023/12/07 00:05:16;;;;;;;;;10.80;9.20;;;;;3.61;87.16;100164.75;5057103;28;8850;-91
2023/12/07 00:07:44;;;;;;;;;16.80;15.40;;;;;3.59;86.70;100171.88;5057418;28;8850;-91
2023/12/07 00:10:12;;;;;;;;;10.60;7.80;;;;;3.60;87.15;100170.06;5044220;28;8882;-91
2023/12/07 00:12:40;;;;;;;;;9.60;9.60;;;;;3.59;86.79;100174.50;5037134;28;8910;-91
2023/12/07 00:15:07;;;;;;;;;16.00;15.80;;;;;3.59;87.00;100182.41;5056451;28;8840;-91
2023/12/07 00:17:35;;;;;;;;;17.60;15.40;;;;;3.58;86.72;100180.69;5077178;28;8958;-90
2023/12/07 00:20:04;;;;;;;;;17.00;13.20;;;;;3.57;86.72;100176.34;5076206;28;8978;-91
2023/12/07 00:22:32;;;;;;;;;5.40;5.40;;;;;3.56;87.26;100177.25;5076497;28;8927;-91
2023/12/07 00:25:00;;;;;;;;;10.80;10.80;;;;;3.56;87.18;100181.69;5075814;28;8840;-91
2023/12/07 00:27:28;;;;;;;;;8.80;8.80;;;;;3.55;86.71;100174.72;5076341;28;8850;-91
2023/12/07 00:29:56;;;;;;;;;9.60;7.60;;;;;3.53;87.50;100174.78;5076458;28;8976;-90
2023/12/07 00:32:23;;;;;;;;;13.00;12.00;;;;;3.50;86.83;100180.22;5076213;28;8844;-90
2023/12/07 00:34:52;;;;;;;;;13.00;10.00;;;;;3.49;86.88;100182.91;5077048;28;8905;-91
2023/12/07 00:37:19;;;;;;;;;17.60;15.60;;;;;3.47;86.93;100179.50;5076731;28;8828;-91
2023/12/07 00:39:47;;;;;;;;;14.20;13.00;;;;;3.41;87.04;100183.25;5076173;28;8852;-91
2023/12/07 00:42:15;;;;;;;;;7.00;6.20;;;;;3.35;87.06;100186.19;5077443;28;8862;-91
2023/12/07 00:44:43;;;;;;;;;14.20;11.20;;;;;3.26;87.34;100183.97;5076648;28;8855;-90
2023/12/07 00:47:11;;;;;;;;;14.20;13.40;;;;;3.20;87.68;100189.53;5076370;28;8908;-91
2023/12/07 00:49:39;;;;;;;;;11.60;11.60;;;;;3.13;87.20;100187.25;5075909;28;8846;-91
2023/12/07 00:52:07;;;;;;;;;6.00;5.60;;;;;3.06;87.71;100184.03;5076104;28;8872;-91
2023/12/07 00:54:35;;;;;;;;;16.00;14.60;;;;;3.01;87.24;100186.00;5075948;28;8829;-91
2023/12/07 00:57:03;;;;;;;;;9.20;8.60;;;;;2.95;87.80;100191.53;5076713;28;8844;-91
2023/12/07 00:59:33;;;;;;;;;14.80;10.80;;;;;2.91;87.50;100190.00;5076032;28;9490;-90
2023/12/07 01:02:02;;;;;;;;;8.40;8.40;;;;;2.90;87.64;100198.81;5076323;28;8862;-91
2023/12/07 01:04:29;;;;;;;;;13.00;12.00;;;;;2.91;87.72;100195.25;5076444;28;8843;-90
2023/12/07 01:06:58;;;;;;;;;11.40;8.60;;;;;2.94;88.08;100197.72;5076369;28;8832;-90
2023/12/07 01:09:25;;;;;;;;;16.60;14.80;;;;;2.98;87.53;100201.94;5069480;28;8838;-91
2023/12/07 01:11:53;;;;;;;;;14.60;13.00;;;;;3.02;88.36;100197.41;5056324;28;9532;-90
2023/12/07 01:14:21;;;;;;;;;13.00;10.60;;;;;3.04;87.47;100204.28;5052860;28;8841;-90
2023/12/07 01:16:48;;;;;;;;;7.80;7.80;;;;;3.07;87.91;100206.78;5036042;28;8828;-91
2023/12/07 01:19:17;;;;;;;;;11.80;10.00;;;;;3.09;87.70;100212.81;5035970;28;9494;-90
2023/12/07 01:21:45;;;;;;;;;12.00;10.80;;;;;3.10;87.23;100206.63;5035979;28;8849;-91
2023/12/07 01:24:12;;;;;;;;;11.20;8.80;;;;;3.12;87.43;100204.81;5035933;28;8860;-91
2023/12/07 01:26:43;;;;;;;;;10.20;9.60;;;;;3.12;87.86;100204.81;5035832;28;8840;-90
2023/12/07 01:29:11;;;;;;;;;12.60;10.80;;;;;3.13;87.46;100203.88;5035622;28;8844;-91
2023/12/07 01:31:39;;;;;;;;;4.00;3.40;;;;;3.11;87.73;100203.06;5035323;28;8828;-90
2023/12/07 01:34:07;;;;;;;;;17.60;15.00;;;;;3.10;87.89;100213.69;5035043;28;8852;-91
2023/12/07 01:36:34;;;;;;;;;10.80;10.00;;;;;3.05;87.83;100219.16;5035256;28;9514;-90
2023/12/07 01:39:03;;;;;;;;;10.40;9.40;;;;;3.01;87.41;100219.34;5035408;28;8844;-91
2023/12/07 01:41:30;;;;;;;;;10.00;9.20;;;;;2.95;87.59;100220.47;5033919;28;8871;-90
2023/12/07 01:43:58;;;;;;;;;6.80;5.00;;;;;2.88;87.04;100220.81;5034723;28;8970;-90
2023/12/07 01:46:26;;;;;;;;;6.20;6.20;;;;;2.80;87.45;100221.16;5035925;28;8840;-91
2023/12/07 01:48:54;;;;;;;;;10.40;10.40;;;;;2.72;87.99;100223.25;5034503;28;8836;-91
2023/12/07 01:51:22;;;;;;;;;7.40;5.80;;;;;2.66;87.38;100218.25;5035107;28;8890;-91
2023/12/07 01:53:50;;;;;;;;;10.00;9.00;;;;;2.58;88.02;100219.53;5034505;28;9534;-91
2023/12/07 01:56:18;;;;;;;;;11.00;9.60;;;;;2.50;87.92;100227.72;5034907;28;8844;-91
2023/12/07 01:58:46;;;;;;;;;9.00;9.00;;;;;2.46;87.76;100225.28;5035056;28;8848;-91
2023/12/07 02:01:14;;;;;;;;;10.80;9.60;;;;;2.45;88.33;100234.09;5033778;28;8850;-91
2023/12/07 02:03:41;;;;;;;;;9.40;7.00;;;;;2.47;88.03;100238.38;5034891;28;8852;-91
2023/12/07 02:06:10;;;;;;;;;11.00;9.40;;;;;2.50;88.41;100238.25;5035257;28;8841;-91
2023/12/07 02:08:41;;;;;;;;;4.80;3.40;;;;;2.53;87.83;100238.13;5034581;28;8844;-90
2023/12/07 02:11:09;;;;;;;;;13.60;13.20;;;;;2.56;88.31;100235.34;5038091;28;8926;-90
2023/12/07 02:13:38;;;;;;;;;13.00;12.20;;;;;2.61;88.35;100241.28;5039588;28;8856;-90
2023/12/07 02:16:05;;;;;;;;;15.00;11.60;;;;;2.65;88.04;100242.84;5039904;28;8828;-90
2023/12/07 02:18:33;;;;;;;;;13.60;9.20;;;;;2.67;87.87;100241.03;5040166;28;8852;-90
2023/12/07 02:21:01;;;;;;;;;7.40;5.20;;;;;2.69;88.29;100244.44;5040577;28;8840;-89
2023/12/07 02:23:29;;;;;;;;;11.20;9.80;;;;;2.68;88.10;100242.72;5039405;28;8840;-90
2023/12/07 02:28:58;;;;;;;;;9.20;8.80;;;;;2.60;87.52;100246.59;5038653;28;8959;-90
2023/12/07 02:31:26;;;;;;;;;11.20;9.60;;;;;2.55;87.97;100252.03;5040435;28;8868;-91
2023/12/07 02:33:54;;;;;;;;;13.00;12.00;;;;;2.51;88.33;100249.63;5039696;28;8837;-91
2023/12/07 02:36:21;;;;;;;;;6.60;6.20;;;;;2.46;88.12;100247.19;5039486;28;8843;-90
2023/12/07 02:38:49;;;;;;;;;8.40;7.80;;;;;2.41;88.07;100243.88;5039118;28;9536;-91
2023/12/07 02:41:17;;;;;;;;;9.00;9.00;;;;;2.35;87.83;100252.03;5039242;28;8852;-91
2023/12/07 02:43:44;;;;;;;;;12.80;10.40;;;;;2.30;88.70;100248.75;5041810;28;8840;-90
2023/12/07 02:46:12;;;;;;;;;6.00;4.00;;;;;2.25;87.88;100252.47;5043928;28;8875;-90
2023/12/07 02:48:40;;;;;;;;;10.00;9.20;;;;;2.23;88.00;100249.03;5041509;28;9466;-91
2023/12/07 02:51:07;;;;;;;;;11.20;8.80;;;;;2.21;88.26;100256.97;5039322;28;8967;-91
2023/12/07 02:53:35;;;;;;;;;10.40;10.00;;;;;2.22;88.36;100247.34;5038952;28;9042;-90
2023/12/07 02:56:03;;;;;;;;;6.60;4.80;;;;;2.23;88.48;100255.16;5039650;28;8856;-91
2023/12/07 02:58:31;;;;;;;;;9.80;9.60;;;;;2.24;88.54;100245.50;5038988;28;8855;-91
2023/12/07 03:00:59;;;;;;;;;12.00;11.00;;;;;2.25;88.45;100244.56;5039035;28;8837;-91
2023/12/07 03:03:27;;;;;;;;;6.80;6.40;;;;;2.24;87.61;100251.63;5039300;28;8852;-91
2023/12/07 03:05:54;;;;;;;;;12.60;11.20;;;;;2.25;88.42;100258.56;5038871;28;8880;-91
2023/12/07 03:08:22;;;;;;;;;5.60;4.40;;;;;2.27;87.70;100262.00;5038834;28;8849;-90
2023/12/07 03:10:50;;;;;;;;;13.00;13.00;;;;;2.28;88.20;100255.81;5038490;28;8856;-91
2023/12/07 03:13:17;;;;;;;;;6.60;6.40;;;;;2.29;88.50;100259.31;5038826;28;8848;-91
2023/12/07 03:15:45;;;;;;;;;11.40;9.00;;;;;2.27;87.82;100245.38;5038663;28;8836;-91
2023/12/07 03:18:13;;;;;;;;;5.20;5.20;;;;;2.26;88.13;100241.06;5039051;28;8847;-91
2023/12/07 03:20:41;;;;;;;;;12.40;9.80;;;;;2.26;88.06;100249.78;5038006;28;8844;-91
2023/12/07 03:23:09;;;;;;;;;7.40;7.40;;;;;2.25;87.88;100247.19;5038795;28;8863;-91
2023/12/07 03:25:36;;;;;;;;;10.20;9.60;;;;;2.23;87.33;100242.03;5038314;28;8863;-90
2023/12/07 03:28:04;;;;;;;;;9.80;9.80;;;;;2.18;87.64;100236.09;5038274;28;8844;-90
2023/12/07 03:30:32;;;;;;;;;8.40;7.60;;;;;2.09;88.01;100241.75;5037842;28;9619;-91
2023/12/07 03:33:00;;;;;;;;;6.40;4.00;;;;;2.02;88.34;100255.16;5038615;28;8848;-91
2023/12/07 03:35:27;;;;;;;;;10.60;7.80;;;;;1.94;88.05;100244.13;5037548;28;8833;-91
2023/12/07 03:37:55;;;;;;;;;11.40;8.00;;;;;1.85;87.82;100239.25;5037073;28;8844;-91
2023/12/07 03:40:23;;;;;;;;;8.60;8.60;;;;;1.77;88.18;100244.81;5037269;28;8863;-91
2023/12/07 03:42:50;;;;;;;;;16.00;12.40;;;;;1.68;87.64;100242.50;5037187;28;8840;-90
2023/12/07 03:45:24;;;;;;;;;10.40;9.80;;;;;1.59;88.28;100237.63;5037770;28;8910;-90
2023/12/07 03:47:51;;;;;;;;;6.60;6.20;;;;;1.50;88.21;100237.13;5037432;28;8860;-90
2023/12/07 03:50:19;;;;;;;;;8.60;7.00;;;;;1.41;87.61;100235.72;5038052;28;8852;-91
2023/12/07 03:52:47;;;;;;;;;7.80;6.60;;;;;1.33;88.29;100240.41;5037676;28;8867;-91
2023/12/07 03:55:14;;;;;;;;;8.00;7.20;;;;;1.24;88.33;100238.13;5037594;28;8837;-91
2023/12/07 03:57:42;;;;;;;;;10.00;8.80;;;;;1.18;88.37;100240.97;5037575;28;9649;-90
2023/12/07 04:00:10;;;;;;;;;9.00;8.80;;;;;1.13;88.03;100242.91;5037838;28;8848;-91
2023/12/07 04:02:38;;;;;;;;;6.60;5.60;;;;;1.11;88.96;100242.13;5037596;28;8832;-91
2023/12/07 04:05:05;;;;;;;;;5.60;4.60;;;;;1.08;88.29;100247.47;5037687;28;8844;-91
2023/12/07 04:07:33;;;;;;;;;12.40;10.80;;;;;1.07;88.52;100252.78;5037900;28;8890;-91
2023/12/07 04:10:01;;;;;;;;;11.60;8.00;;;;;1.07;88.75;100244.91;5037356;28;9474;-91
2023/12/07 04:12:29;;;;;;;;;11.60;9.60;;;;;1.06;89.16;100243.22;5037658;28;8876;-91
2023/12/07 04:14:56;;;;;;;;;9.80;8.80;;;;;1.05;88.96;100244.97;5037232;28;8974;-90
2023/12/07 04:17:24;;;;;;;;;9.60;7.80;;;;;1.05;88.42;100246.72;5037468;28;8918;-91
2023/12/07 04:19:51;;;;;;;;;6.60;6.00;;;;;1.07;89.30;100242.28;5037374;28;8872;-91
2023/12/07 04:22:20;;;;;;;;;6.40;5.80;;;;;1.08;89.02;100246.63;5037139;28;8870;-91
2023/12/07 04:24:47;;;;;;;;;8.00;7.40;;;;;1.04;88.76;100251.13;5036815;28;9845;-91
2023/12/07 04:27:15;;;;;;;;;11.20;8.80;;;;;1.01;88.55;100255.63;5037501;28;8832;-91
2023/12/07 04:29:43;;;;;;;;;8.40;5.80;;;;;1.00;88.83;100248.66;5037005;28;8845;-91
2023/12/07 04:32:10;;;;;;;;;10.80;10.20;;;;;1.02;88.97;100258.19;5036964;28;8844;-91
2023/12/07 04:34:39;;;;;;;;;11.80;8.40;;;;;1.03;89.01;100259.03;5036400;28;8843;-91
2023/12/07 04:37:07;;;;;;;;;12.40;10.80;;;;;1.05;89.27;100260.69;5036300;28;9050;-91
2023/12/07 04:39:34;;;;;;;;;9.20;9.20;;;;;1.07;89.12;100255.41;5036976;28;9510;-91
2023/12/07 04:42:02;;;;;;;;;7.40;7.00;;;;;1.06;89.25;100257.16;5037073;28;8848;-90
2023/12/07 04:44:30;;;;;;;;;7.40;4.80;;;;;1.06;89.01;100261.56;5036909;28;8836;-91
2023/12/07 04:46:57;;;;;;;;;4.80;4.20;;;;;1.06;88.65;100275.50;5037286;28;8845;-91
2023/12/07 04:49:25;;;;;;;;;7.80;7.60;;;;;1.09;89.02;100275.41;5036883;28;8828;-91
2023/12/07 04:51:53;;;;;;;;;8.60;7.20;;;;;1.13;88.84;100271.75;5036401;28;8841;-91
2023/12/07 04:54:20;;;;;;;;;8.60;8.60;;;;;1.14;89.24;100270.84;5037103;28;8832;-91
2023/12/07 04:56:48;;;;;;;;;8.60;7.40;;;;;1.20;89.01;100275.00;5036210;28;8941;-91
2023/12/07 04:59:16;;;;;;;;;8.20;6.60;;;;;1.23;88.49;100275.75;5036186;28;8871;-91
2023/12/07 05:01:45;;;;;;;;;12.60;9.20;;;;;1.24;88.48;100277.47;5035916;28;8851;-91
2023/12/07 05:04:13;;;;;;;;;10.60;9.00;;;;;1.27;88.73;100273.84;5036039;28;8983;-91
2023/12/07 05:06:42;;;;;;;;;8.20;7.00;;;;;1.26;89.11;100266.91;5035593;28;8975;-91
2023/12/07 05:09:10;;;;;;;;;3.40;3.40;;;;;1.23;89.04;100267.03;5035636;28;8856;-90
2023/12/07 05:11:38;;;;;;;;;6.60;5.60;;;;;1.17;88.51;100270.75;5035641;28;8864;-91
2023/12/07 05:14:07;;;;;;;;;6.00;6.00;;;;;1.11;88.68;100268.34;5035740;28;8833;-91
2023/12/07 05:16:34;;;;;;;;;4.00;4.00;;;;;1.08;88.36;100278.91;5035194;28;9577;-91
2023/12/07 05:19:03;;;;;;;;;8.20;6.20;;;;;1.04;88.77;100274.72;5034761;28;8956;-91
2023/12/07 05:21:31;;;;;;;;;11.00;6.00;;;;;1.04;88.28;100273.84;5034672;28;8848;-91
2023/12/07 05:23:59;;;;;;;;;9.00;8.20;;;;;1.06;88.60;100272.88;5034807;28;8844;-91
2023/12/07 05:26:27;;;;;;;;;9.00;8.20;;;;;1.09;89.19;100283.28;5035235;28;8836;-91
2023/12/07 05:28:54;;;;;;;;;11.20;10.00;;;;;1.10;88.47;100282.34;5035424;28;8898;-91
2023/12/07 05:31:22;;;;;;;;;7.00;6.20;;;;;1.09;88.52;100285.91;5035116;28;8865;-91
2023/12/07 05:33:50;;;;;;;;;6.40;6.40;;;;;1.11;89.33;100284.06;5036062;28;8922;-91
2023/12/07 05:36:18;;;;;;;;;4.00;3.00;;;;;1.11;88.63;100288.44;5034909;28;8874;-91
2023/12/07 05:38:45;;;;;;;;;9.80;7.00;;;;;1.11;89.01;100288.44;5035301;28;8920;-91
2023/12/07 05:41:13;;;;;;;;;4.80;4.80;;;;;1.10;88.97;100295.47;5035136;28;8864;-91
2023/12/07 05:43:41;;;;;;;;;9.80;9.80;;;;;1.09;88.65;100292.91;5034447;28;8878;-91
2023/12/07 05:46:09;;;;;;;;;6.20;5.60;;;;;1.08;88.34;100294.66;5034071;28;8844;-91
2023/12/07 05:48:37;;;;;;;;;9.60;9.00;;;;;1.08;88.36;100299.06;5034749;28;8906;-91
2023/12/07 05:51:05;;;;;;;;;10.80;10.00;;;;;1.09;88.15;100306.88;5034560;28;8884;-91
2023/12/07 05:53:33;;;;;;;;;6.20;4.20;;;;;1.10;89.02;100303.34;5035128;28;8852;-91
2023/12/07 05:56:01;;;;;;;;;7.00;7.00;;;;;1.10;88.55;100300.72;5034165;28;8840;-91
2023/12/07 05:58:32;;;;;;;;;6.80;6.80;;;;;1.08;88.24;100297.25;5035637;28;8852;-90
2023/12/07 06:01:00;;;;;;;;;8.20;8.20;;;;;1.07;88.74;100295.56;5034972;28;8902;-91
2023/12/07 06:03:27;;;;;;;;;7.80;5.80;;;;;1.08;88.77;100307.75;5034718;28;8824;-91
2023/12/07 06:05:55;;;;;;;;;5.20;5.20;;;;;1.10;89.05;100312.94;5035794;28;8868;-91
2023/12/07 06:08:23;;;;;;;;;10.60;7.20;;;;;1.11;88.80;100302.41;5034679;28;8839;-92
2023/12/07 06:10:51;;;;;;;;;7.20;6.00;;;;;1.10;88.29;100303.34;5034879;28;8837;-92
2023/12/07 06:13:19;;;;;;;;;9.80;9.40;;;;;1.10;89.08;100300.72;5035127;28;8910;-91
2023/12/07 06:15:47;;;;;;;;;6.40;5.20;;;;;1.10;88.38;100303.34;5035018;28;8841;-91
2023/12/07 06:18:15;;;;;;;;;4.40;4.00;;;;;1.11;89.04;100305.03;5034687;28;8870;-91
2023/12/07 06:20:45;;;;;;;;;6.00;6.00;;;;;1.12;88.79;100301.50;5035144;28;9549;-91
2023/12/07 06:23:12;;;;;;;;;8.20;8.20;;;;;1.13;88.64;100307.63;5034472;28;8896;-92
2023/12/07 06:25:40;;;;;;;;;9.00;9.00;;;;;1.08;88.78;100294.66;5033880;28;8852;-91
2023/12/07 06:28:08;;;;;;;;;7.60;6.60;;;;;1.07;88.17;100302.59;5034993;28;8833;-91
2023/12/07 06:30:35;;;;;;;;;12.00;9.00;;;;;1.04;88.77;100300.94;5044348;28;8888;-91
2023/12/07 06:33:03;;;;;;;;;6.40;6.40;;;;;1.04;88.59;100305.31;5044756;28;8874;-91
2023/12/07 06:35:31;;;;;;;;;7.00;6.00;;;;;1.02;88.02;100304.50;5035223;28;8844;-91
2023/12/07 06:37:59;;;;;;;;;6.40;6.40;;;;;0.99;88.15;100308.09;5034129;28;8870;-90
2023/12/07 06:40:27;;;;;;;;;10.60;9.00;;;;;0.96;89.07;100310.81;5032439;28;8849;-91
2023/12/07 06:42:55;;;;;;;;;9.80;9.20;;;;;0.92;88.08;100309.22;5032530;28;8913;-91
2023/12/07 06:45:22;;;;;;;;;9.20;7.00;;;;;0.85;88.58;100310.31;5032493;28;9644;-91
2023/12/07 06:47:50;;;;;;;;;7.40;6.20;;;;;0.78;88.49;100310.59;5033181;28;8886;-91
2023/12/07 06:50:21;;;;;;;;;6.20;6.20;;;;;0.72;88.84;100310.81;5033300;28;8966;-91
2023/12/07 06:52:48;;;;;;;;;8.80;7.60;;;;;0.67;88.60;100307.47;5031676;28;8986;-91
2023/12/07 06:55:16;;;;;;;;;3.40;3.20;;;;;0.61;88.61;100313.78;5033871;28;8864;-91
2023/12/07 06:57:45;;;;;;;;;8.40;7.00;;;;;0.58;88.33;100313.03;5036877;28;8922;-91
2023/12/07 07:00:12;;;;;;;;;6.40;6.40;;;;;0.52;88.53;100311.47;5036919;28;8844;-90
2023/12/07 07:02:40;;;;;;;;;9.20;6.40;;;;;0.49;88.54;100311.59;5036530;28;8859;-91
2023/12/07 07:05:11;;;;;;;;;6.40;6.20;;;;;0.46;88.45;100309.06;5039904;28;8845;-92
2023/12/07 07:07:39;;;;;;;;;6.00;6.00;;;;;0.41;88.86;100313.63;5038745;28;8840;-92
2023/12/07 07:10:09;;;;;;;;;10.40;8.80;;;;;0.37;89.06;100312.00;5038871;28;9600;-91
2023/12/07 07:12:37;;;;;;;;;5.80;5.80;;;;;0.38;88.48;100310.25;5037660;28;8860;-91
2023/12/07 07:15:05;;;;;;;;;10.80;9.80;;;;;0.35;88.24;100305.97;5033937;28;8861;-91
2023/12/07 07:17:32;;;;;;;;;9.00;7.40;;;;;0.34;88.53;100300.75;5033994;28;8859;-91
2023/12/07 07:20:00;;;;;;;;;9.00;9.00;;;;;0.32;88.61;100297.34;5034951;28;8840;-91
2023/12/07 07:22:28;;;;;;;;;6.40;6.40;;;;;0.30;88.65;100300.00;5034601;28;8939;-91
2023/12/07 07:24:56;;;;;;;;;12.00;9.40;;;;;0.30;89.33;100292.16;5035673;28;8950;-91
2023/12/07 07:27:24;;;;;;;;;3.00;3.00;;;;;0.28;88.37;100293.97;5035836;28;9568;-91
2023/12/07 07:29:53;;;;;;;;;4.40;4.40;;;;;0.27;88.52;100286.16;5036356;28;8918;-91
2023/12/07 07:32:20;;;;;;;;;5.20;3.80;;;;;0.27;89.03;100294.00;5036210;28;8859;-91
2023/12/07 07:34:48;;;;;;;;;9.00;9.00;;;;;0.23;89.08;100288.00;5036517;28;8856;-91
2023/12/07 07:37:16;;;;;;;;;4.40;4.40;;;;;0.20;88.78;100282.91;5036197;28;8884;-91
2023/12/07 07:39:45;;;;;;;;;8.80;8.00;;;;;0.19;88.81;100285.56;5036309;28;9264;-91
2023/12/07 07:42:13;;;;;;;;;6.20;3.80;;;;;0.19;89.36;100282.94;5035512;28;8922;-91
2023/12/07 07:44:41;;;;;;;;;6.20;6.20;;;;;0.20;89.11;100285.50;5035320;28;8975;-91
2023/12/07 07:47:09;;;;;;;;;7.00;5.40;;;;;0.21;88.63;100279.38;5035654;28;8852;-91
2023/12/07 07:49:37;;;;;;;;;15.00;12.00;;;;;0.24;89.44;100284.50;5036715;28;8994;-91
2023/12/07 07:52:05;;;;;;;;;8.20;6.00;;;;;0.28;89.05;100293.09;5036141;28;9606;-91
2023/12/07 07:54:32;;;;;;;;;13.00;10.20;;;;;0.28;89.05;100285.25;5036095;28;8840;-91
2023/12/07 07:57:00;;;;;;;;;7.40;6.20;;;;;0.30;88.91;100289.53;5036407;28;8922;-91
2023/12/07 07:59:28;;;;;;;;;8.60;7.00;;;;;0.35;88.76;100294.63;5035824;28;8895;-91
2023/12/07 08:01:55;;;;;;;;;7.00;7.00;;;;;0.39;89.57;100286.59;5034993;28;8840;-91
2023/12/07 08:04:24;;;;;;;;;7.20;6.80;;;;;0.42;88.97;100283.91;5035462;28;8851;-91
2023/12/07 08:06:51;;;;;;;;;9.80;8.80;;;;;0.47;88.62;100296.84;5035514;28;8844;-91
2023/12/07 08:09:19;;;;;;;;;7.00;5.60;;;;;0.50;89.40;100289.72;5034803;28;9523;-91
2023/12/07 08:11:47;;;;;;;;;7.40;7.40;;;;;0.52;89.06;100290.53;5035257;28;8876;-91
2023/12/07 08:14:14;;;;;;;;;8.60;8.60;;;;;0.57;88.89;100279.91;5035592;28;8852;-91
2023/12/07 08:16:42;;;;;;;;;6.40;5.60;;;;;0.62;89.28;100273.59;5035880;28;9329;-91
2023/12/07 08:19:10;;;;;;;;;6.60;5.20;;;;;0.67;89.23;100276.03;5035891;28;8857;-91
2023/12/07 08:21:38;;;;;;;;;7.80;7.00;;;;;0.75;88.94;100279.25;5035236;28;8879;-91
2023/12/07 08:24:06;;;;;;;;;10.00;9.40;;;;;0.80;89.38;100277.34;5034796;28;8856;-91
2023/12/07 08:26:34;;;;;;;;;12.20;11.20;;;;;0.85;89.20;100276.25;5035159;28;8848;-91
2023/12/07 08:29:02;;;;;;;;;7.80;7.40;;;;;0.93;88.76;100276.00;5035651;28;8859;-91
2023/12/07 08:31:32;;;;;;;;;12.00;6.40;;;;;0.95;89.12;100282.91;5035811;28;8875;-91
2023/12/07 08:34:00;;;;;;;;;4.80;4.40;;;;;0.96;89.01;100279.38;5034983;28;8864;-91
2023/12/07 08:36:29;;;;;;;;;8.20;6.60;;;;;0.97;88.61;100273.22;5035731;28;8853;-91
2023/12/07 08:38:57;;;;;;;;;12.40;11.60;;;;;1.00;88.62;100278.34;5035573;28;8841;-91
2023/12/07 08:41:25;;;;;;;;;7.80;7.80;;;;;1.03;88.58;100275.63;5035146;28;9526;-91
2023/12/07 08:43:53;;;;;;;;;8.80;6.80;;;;;1.05;89.19;100273.78;5034005;28;8860;-91
2023/12/07 08:46:21;;;;;;;;;8.20;8.20;;;;;1.08;88.74;100278.06;5034163;28;8906;-91
2023/12/07 08:48:49;;;;;;;;;8.20;6.80;;;;;1.11;88.59;100280.56;5034885;28;8852;-91
2023/12/07 08:51:17;;;;;;;;;13.40;12.00;;;;;1.14;88.39;100283.94;5034343;28;8844;-90
2023/12/07 08:53:45;;;;;;;;;8.60;8.60;;;;;1.16;88.55;100282.13;5033991;28;8848;-92
2023/12/07 08:56:15;;;;;;;;;12.20;10.40;;;;;1.18;88.48;100280.31;5034284;28;8848;-91
2023/12/07 08:58:44;;;;;;;;;9.60;8.60;;;;;1.21;88.33;100284.59;5034571;28;8852;-91
2023/12/07 09:01:12;;;;;;;;;10.80;10.40;;;;;1.21;87.98;100301.16;5034417;28;8844;-91
2023/12/07 09:03:56;;;;;;;;;9.40;9.40;;;;;1.22;88.25;100288.94;5034615;28;8903;-92
2023/12/07 09:06:24;;;;;;;;;10.40;9.20;;;;;1.23;88.09;100299.34;5035900;28;8854;-91
2023/12/07 09:08:53;;;;;;;;;19.60;18.40;;;;;1.25;87.95;100297.53;5035316;28;8855;-91
2023/12/07 09:11:21;;;;;;;;;24.60;23.00;;;;;1.29;87.96;100296.50;5033733;28;9525;-92
2023/12/07 09:13:48;;;;;;;;;20.60;15.80;;;;;1.33;88.10;100300.72;5034172;28;8879;-92
2023/12/07 09:16:17;;;;;;;;;21.80;20.60;;;;;1.39;88.17;100299.66;5034219;28;8959;-91
2023/12/07 09:18:46;;;;;;;;;13.00;13.00;;;;;1.47;88.12;100298.47;5034514;28;8929;-91
2023/12/07 09:21:14;;;;;;;;;15.80;12.00;;;;;1.57;88.47;100301.56;5035321;28;8836;-91
2023/12/07 09:23:43;;;;;;;;;4.00;3.20;;;;;1.61;87.89;100306.66;5034341;28;8875;-91
2023/12/07 09:26:10;;;;;;;;;12.00;10.00;;;;;1.66;87.82;100303.88;5034275;28;8883;-91
2023/12/07 09:28:39;;;;;;;;;9.00;8.40;;;;;1.70;88.19;100301.06;5034043;28;8828;-91
2023/12/07 09:31:07;;;;;;;;;12.00;10.00;;;;;1.78;88.14;100309.50;5033642;28;8837;-91
2023/12/07 09:33:35;;;;;;;;;11.60;10.40;;;;;1.85;87.92;100310.97;5034861;28;8967;-91
2023/12/07 09:36:07;;;;;;;;;8.60;8.60;;;;;1.95;87.90;100308.84;5034066;28;8876;-91
2023/12/07 09:38:35;;;;;;;;;12.20;10.00;;;;;2.02;87.79;100308.56;5034651;28;9536;-91
2023/12/07 09:41:03;;;;;;;;;12.20;9.40;;;;;2.12;87.78;100294.13;5034793;28;8845;-92
2023/12/07 09:43:31;;;;;;;;;12.20;12.20;;;;;2.23;87.54;100291.94;5034538;28;8848;-91
2023/12/07 09:45:59;;;;;;;;;16.20;14.60;;;;;2.34;86.93;100288.88;5033938;28;8859;-92
2023/12/07 09:48:28;;;;;;;;;11.00;11.00;;;;;2.45;86.96;100291.91;5034266;28;8837;-92
2023/12/07 09:50:56;;;;;;;;;9.20;6.40;;;;;2.56;86.72;100280.03;5033852;28;8875;-92
2023/12/07 09:53:25;;;;;;;;;9.80;9.80;;;;;2.68;86.55;100274.28;5033264;28;8848;-92
2023/12/07 09:55:53;;;;;;;;;15.20;10.00;;;;;2.81;86.80;100277.22;5033291;28;8867;-92
2023/12/07 09:58:21;;;;;;;;;9.20;7.00;;;;;2.98;86.19;100266.81;5032843;28;9553;-92
2023/12/07 10:01:05;;;;;;;;;17.80;13.80;;;;;3.27;85.46;100264.59;5032722;28;8857;-92
2023/12/07 10:03:33;;;;;;;;;9.40;9.00;;;;;3.51;85.62;100266.13;5032743;28;9619;-92
2023/12/07 10:06:01;;;;;;;;;8.60;5.80;;;;;3.77;85.36;100255.25;5032219;28;8861;-92
2023/12/07 10:08:28;;;;;;;;;8.60;6.60;;;;;4.05;84.87;100251.22;5032144;28;8877;-92
2023/12/07 10:10:56;;;;;;;;;10.80;9.20;;;;;4.35;84.80;100246.22;5031493;28;9548;-92
2023/12/07 10:13:25;;;;;;;;;6.80;6.80;;;;;4.64;84.87;100241.19;5032223;28;8983;-92
2023/12/07 10:15:53;;;;;;;;;8.40;8.20;;;;;4.88;84.29;100237.28;5032579;28;9215;-92
2023/12/07 10:18:21;;;;;;;;;9.00;8.60;;;;;5.01;84.36;100241.00;5047521;28;8867;-92
2023/12/07 10:20:49;;;;;;;;;10.80;8.80;;;;;5.10;84.06;100234.41;5051053;28;8873;-92
2023/12/07 10:23:17;;;;;;;;;5.60;5.20;;;;;5.15;84.20;100235.00;5038774;28;8832;-92
2023/12/07 10:25:45;;;;;;;;;9.40;8.20;;;;;5.33;84.19;100237.50;5033035;28;8874;-92
2023/12/07 10:28:16;;;;;;;;;7.00;5.20;;;;;5.73;83.52;100234.41;5033934;28;8848;-92
2023/12/07 10:30:44;;;;;;;;;10.20;8.80;;;;;6.25;82.25;100224.41;5033598;28;8840;-92
2023/12/07 10:33:13;;;;;;;;;6.80;5.60;;;;;6.74;81.78;100207.41;5037101;28;9003;-92
2023/12/07 10:35:41;;;;;;;;;6.20;6.20;;;;;7.20;81.68;100203.66;5037306;28;8844;-92
2023/12/07 10:38:10;;;;;;;;;6.40;6.40;;;;;7.58;81.04;100196.81;5037271;28;8872;-92
2023/12/07 10:40:38;;;;;;;;;7.00;7.00;;;;;8.08;80.20;100187.28;5036564;28;8844;-92
2023/12/07 10:43:06;;;;;;;;;7.00;6.00;;;;;8.52;79.28;100177.25;5037480;28;8863;-93
2023/12/07 10:45:34;;;;;;;;;7.00;6.00;;;;;8.79;79.11;100172.72;5037574;28;8967;-92
2023/12/07 10:48:03;;;;;;;;;6.00;6.00;;;;;8.96;78.25;100169.78;5036725;28;8849;-92
2023/12/07 10:50:30;;;;;;;;;9.00;6.50;;;;;9.00;78.74;100177.41;5037198;28;8857;-92
2023/12/07 10:52:59;;;;;;;;;9.75;8.00;;;;;8.91;78.85;100175.41;5036715;28;8832;-92
2023/12/07 10:55:27;;;;;;;;;6.00;6.00;;;;;8.82;79.13;100165.38;5036116;28;9768;-92
2023/12/07 10:57:55;;;;;;;;;10.00;8.00;;;;;8.69;79.46;100175.19;5037263;28;8868;-92
2023/12/07 11:00:27;;;;;;;;;10.25;9.25;;;;;8.57;79.72;100173.34;5037232;28;8848;-92
2023/12/07 11:03:11;;;;;;;;;6.75;6.75;;;;;8.46;79.61;100173.22;5036619;28;8845;-91
2023/12/07 11:05:39;;;;;;;;;6.00;4.00;;;;;8.34;80.09;100174.03;5036006;28;8844;-93
2023/12/07 11:08:08;;;;;;;;;7.50;6.50;;;;;8.26;80.25;100164.88;5035902;28;9230;-90
2023/12/07 11:10:37;;;;;;;;;6.75;6.00;;;;;8.28;80.45;100169.13;5036041;28;8853;-91
2023/12/07 11:13:06;;;;;;;;;3.25;3.25;;;;;8.38;80.27;100154.28;5036282;28;8921;-91
2023/12/07 11:15:34;;;;;;;;;7.00;6.50;;;;;8.31;80.66;100147.72;5035747;28;8845;-93
2023/12/07 11:18:03;;;;;;;;;9.50;8.00;;;;;8.10;80.62;100149.13;5036036;28;8943;-91
2023/12/07 11:20:31;;;;;;;;;6.25;5.00;;;;;7.93;80.69;100138.78;5036158;28;8872;-91
2023/12/07 11:22:58;;;;;;;;;9.00;6.75;;;;;7.90;80.53;100131.00;5035961;28;8848;-91
2023/12/07 11:25:26;;;;;;;;;6.25;6.25;;;;;7.91;80.26;100122.09;5034864;28;8852;-91
2023/12/07 11:27:54;;;;;;;;;6.00;5.00;;;;;7.92;79.84;100123.78;5033783;28;8853;-91
2023/12/07 11:30:22;;;;;;;;;7.00;5.50;;;;;7.92;79.94;100122.97;5035157;28;9602;-91
2023/12/07 11:32:50;;;;;;;;;5.00;3.25;;;;;8.13;79.32;100118.91;5035051;28;9701;-91
2023/12/07 11:35:18;;;;;;;;;3.25;2.00;;;;;8.39;77.98;100102.09;5035871;28;8870;-91
2023/12/07 11:37:46;;;;;;;;;6.50;6.00;;;;;8.59;77.23;100099.75;5034990;28;8852;-91
2023/12/07 11:40:14;;;;;;;;;9.00;7.50;;;;;8.75;77.13;100091.59;5035697;28;8868;-91
2023/12/07 11:42:43;;;;;;;;;3.75;3.75;;;;;9.00;76.53;100103.06;5034272;28;8991;-91